createdAt,value
2019-01-14T00:02:17.010Z,3.70
2019-01-14T00:04:55.706Z,3.70
2019-01-14T00:07:22.039Z,3.60
2019-01-14T00:09:56.034Z,3.60
2019-01-14T00:12:22.585Z,3.60
2019-01-14T00:14:50.291Z,3.60
2019-01-14T00:17:17.925Z,3.60
2019-01-14T00:19:46.658Z,3.60
2019-01-14T00:22:13.142Z,3.50
2019-01-14T00:24:39.576Z,3.50
2019-01-14T00:27:07.038Z,3.40
2019-01-14T00:29:34.747Z,3.30
2019-01-14T00:32:06.430Z,3.30
2019-01-14T00:34:38.199Z,3.30
2019-01-14T00:37:08.015Z,3.30
2019-01-14T00:39:34.562Z,3.30
2019-01-14T00:42:01.432Z,3.30
2019-01-14T00:44:35.536Z,3.20
2019-01-14T00:47:04.536Z,3.30
2019-01-14T00:49:32.082Z,3.20
2019-01-14T00:51:59.536Z,3.30
2019-01-14T00:54:26.139Z,3.20
2019-01-14T00:56:53.362Z,3.20
2019-01-14T00:59:21.903Z,3.10
2019-01-14T01:01:51.790Z,3.10
2019-01-14T01:04:19.295Z,3.10
2019-01-14T01:06:47.223Z,3.10
2019-01-14T01:09:20.394Z,3.10
2019-01-14T01:11:46.848Z,3.00
2019-01-14T01:14:13.379Z,3.00
2019-01-14T01:16:40.044Z,3.00
2019-01-14T01:19:06.816Z,3.00
2019-01-14T01:21:33.219Z,2.90
2019-01-14T01:23:59.764Z,2.90
2019-01-14T01:26:26.686Z,3.00
2019-01-14T01:28:53.123Z,3.00
2019-01-14T01:31:19.825Z,2.90
2019-01-14T01:33:46.347Z,2.90
2019-01-14T01:36:12.936Z,2.90
2019-01-14T01:38:40.419Z,2.90
2019-01-14T01:41:07.954Z,2.90
2019-01-14T01:43:34.485Z,2.90
2019-01-14T01:46:04.722Z,2.90
2019-01-14T01:48:42.869Z,2.90
2019-01-14T01:51:09.588Z,3.00
2019-01-14T01:53:36.099Z,3.00
2019-01-14T01:56:02.818Z,3.00
2019-01-14T01:58:31.351Z,3.00
2019-01-14T02:01:04.483Z,3.00
2019-01-14T02:03:30.892Z,3.00
2019-01-14T02:06:00.713Z,3.10
2019-01-14T02:08:27.207Z,3.10
2019-01-14T02:10:54.871Z,3.00
2019-01-14T02:13:25.432Z,3.00
2019-01-14T02:15:52.057Z,3.00
2019-01-14T02:18:18.575Z,3.00
2019-01-14T02:20:45.394Z,3.00
2019-01-14T02:23:12.961Z,3.00
2019-01-14T02:25:39.427Z,3.00
2019-01-14T02:28:06.200Z,3.00
2019-01-14T02:30:32.733Z,3.00
2019-01-14T02:32:59.534Z,3.00
2019-01-14T02:35:27.101Z,2.90
2019-01-14T02:37:53.782Z,3.00
2019-01-14T02:40:20.468Z,3.00
2019-01-14T02:42:50.314Z,3.10
2019-01-14T02:45:20.400Z,3.10
2019-01-14T02:47:47.142Z,3.10
2019-01-14T02:50:14.762Z,3.10
2019-01-14T02:52:42.370Z,3.10
2019-01-14T02:55:09.771Z,3.10
2019-01-14T02:57:36.427Z,3.10
2019-01-14T03:00:15.433Z,3.10
2019-01-14T03:02:41.828Z,3.00
2019-01-14T03:05:08.746Z,3.10
2019-01-14T03:07:35.418Z,3.10
2019-01-14T03:10:03.488Z,3.10
2019-01-14T03:12:32.101Z,3.10
2019-01-14T03:14:59.640Z,3.00
2019-01-14T03:17:28.251Z,3.00
2019-01-14T03:19:54.630Z,3.00
2019-01-14T03:22:21.043Z,3.00
2019-01-14T03:24:47.616Z,3.00
2019-01-14T03:27:17.681Z,3.00
2019-01-14T03:29:44.162Z,3.00
2019-01-14T03:32:10.651Z,2.90
2019-01-14T03:34:37.141Z,2.90
2019-01-14T03:37:05.650Z,3.00
2019-01-14T03:39:32.207Z,3.00
2019-01-14T03:41:58.956Z,3.00
2019-01-14T03:44:29.085Z,2.90
2019-01-14T03:47:03.015Z,3.00
2019-01-14T03:49:34.316Z,3.00
2019-01-14T03:52:01.074Z,3.00
2019-01-14T03:54:28.982Z,3.10
2019-01-14T03:56:55.413Z,3.10
2019-01-14T03:59:21.898Z,3.00
2019-01-14T04:01:48.320Z,3.00
2019-01-14T04:04:14.735Z,3.00
2019-01-14T04:06:41.234Z,3.00
2019-01-14T04:09:13.899Z,3.00
2019-01-14T04:11:46.137Z,3.00
2019-01-14T04:14:32.585Z,3.00
2019-01-14T04:17:05.158Z,3.00
2019-01-14T04:19:32.931Z,3.00
2019-01-14T04:22:01.725Z,2.90
2019-01-14T04:24:28.662Z,2.90
2019-01-14T04:26:56.354Z,2.90
2019-01-14T04:29:24.777Z,2.90
2019-01-14T04:31:51.220Z,3.00
2019-01-14T04:34:23.410Z,2.90
2019-01-14T04:36:51.873Z,2.90
2019-01-14T04:39:18.688Z,3.00
2019-01-14T04:41:46.511Z,3.00
2019-01-14T04:44:13.150Z,3.00
2019-01-14T04:46:46.950Z,3.00
2019-01-14T04:49:13.966Z,2.90
2019-01-14T04:51:40.439Z,2.90
2019-01-14T04:54:07.289Z,2.90
2019-01-14T04:56:33.777Z,2.90
2019-01-14T04:59:00.547Z,2.90
2019-01-14T05:01:29.090Z,2.90
2019-01-14T05:03:55.647Z,2.90
2019-01-14T05:06:26.097Z,2.90
2019-01-14T05:08:54.894Z,2.90
2019-01-14T05:11:23.710Z,2.90
2019-01-14T05:13:50.654Z,2.90
2019-01-14T05:16:17.050Z,2.90
2019-01-14T05:18:43.442Z,2.90
2019-01-14T05:21:10.231Z,2.80
2019-01-14T05:23:38.711Z,2.80
2019-01-14T05:26:06.229Z,2.80
2019-01-14T05:28:34.855Z,2.80
2019-01-14T05:31:05.776Z,2.80
2019-01-14T05:33:32.334Z,2.80
2019-01-14T05:35:58.926Z,2.80
2019-01-14T05:38:27.406Z,2.80
2019-01-14T05:40:54.162Z,2.80
2019-01-14T05:43:29.451Z,2.80
2019-01-14T05:45:59.985Z,2.80
2019-01-14T05:48:32.706Z,2.80
2019-01-14T05:50:59.274Z,2.80
2019-01-14T05:53:25.987Z,2.80
2019-01-14T05:55:52.576Z,2.80
2019-01-14T05:58:22.374Z,2.80
2019-01-14T06:00:49.130Z,2.80
2019-01-14T06:03:20.787Z,2.80
2019-01-14T06:05:49.436Z,2.80
2019-01-14T06:08:23.714Z,2.80
2019-01-14T06:10:59.483Z,2.80
2019-01-14T06:13:26.172Z,2.80
2019-01-14T06:15:52.918Z,2.80
2019-01-14T06:18:19.778Z,2.80
2019-01-14T06:20:47.999Z,2.80
2019-01-14T06:23:14.636Z,2.80
2019-01-14T06:25:42.556Z,2.70
2019-01-14T06:28:10.358Z,2.70
2019-01-14T06:30:38.181Z,2.70
2019-01-14T06:33:08.198Z,2.70
2019-01-14T06:35:38.284Z,2.70
2019-01-14T06:38:06.189Z,2.70
2019-01-14T06:40:34.018Z,2.70
2019-01-14T06:43:11.141Z,2.70
2019-01-14T06:45:38.578Z,2.70
2019-01-14T06:48:05.005Z,2.70
2019-01-14T06:50:43.461Z,2.70
2019-01-14T06:53:09.976Z,2.60
2019-01-14T06:55:36.471Z,2.60
2019-01-14T06:58:03.684Z,2.50
2019-01-14T07:00:31.382Z,2.50
2019-01-14T07:02:57.878Z,2.50
2019-01-14T07:05:24.553Z,2.50
2019-01-14T07:07:51.491Z,2.50
2019-01-14T07:10:24.475Z,2.50
2019-01-14T07:12:51.890Z,2.50
2019-01-14T07:15:20.688Z,2.50
2019-01-14T07:17:57.433Z,2.50
2019-01-14T07:20:24.187Z,2.50
2019-01-14T07:22:52.467Z,2.40
2019-01-14T07:25:33.034Z,2.40
2019-01-14T07:27:59.809Z,2.40
2019-01-14T07:30:40.786Z,2.40
2019-01-14T07:33:13.425Z,2.40
2019-01-14T07:35:44.505Z,2.40
2019-01-14T07:38:10.935Z,2.40
2019-01-14T07:40:37.428Z,2.50
2019-01-14T07:43:04.206Z,2.50
2019-01-14T07:45:32.786Z,2.50
2019-01-14T07:47:59.373Z,2.50
2019-01-14T07:50:26.026Z,2.60
2019-01-14T07:52:52.457Z,2.60
2019-01-14T07:55:19.280Z,2.60
2019-01-14T07:57:45.812Z,2.60
2019-01-14T08:00:19.049Z,2.60
2019-01-14T08:02:52.848Z,2.60
2019-01-14T08:05:23.910Z,2.60
2019-01-14T08:07:52.399Z,2.60
2019-01-14T08:10:19.021Z,2.70
2019-01-14T08:12:45.662Z,2.70
2019-01-14T08:15:17.893Z,2.70
2019-01-14T08:17:45.395Z,2.70
2019-01-14T08:20:12.602Z,2.70
2019-01-14T08:22:39.665Z,2.70
2019-01-14T08:25:17.146Z,2.60
2019-01-14T08:27:48.120Z,2.60
2019-01-14T08:30:17.685Z,2.70
2019-01-14T08:32:45.314Z,2.70
2019-01-14T08:35:12.190Z,2.70
2019-01-14T08:37:38.994Z,2.60
2019-01-14T08:40:08.690Z,2.70
2019-01-14T08:42:35.445Z,2.70
2019-01-14T08:45:09.343Z,2.70
2019-01-14T08:47:43.715Z,2.60
2019-01-14T08:50:13.211Z,2.60
2019-01-14T08:52:43.827Z,2.60
2019-01-14T08:55:10.353Z,2.60
2019-01-14T08:57:42.271Z,2.60
2019-01-14T09:00:14.493Z,2.60
2019-01-14T09:02:40.999Z,2.70
2019-01-14T09:05:09.019Z,2.70
2019-01-14T09:07:35.558Z,2.70
2019-01-14T09:10:06.162Z,2.70
2019-01-14T09:12:32.600Z,2.70
2019-01-14T09:15:00.311Z,2.70
2019-01-14T09:17:27.821Z,2.80
2019-01-14T09:19:56.573Z,2.80
2019-01-14T09:22:24.976Z,2.80
2019-01-14T09:24:52.811Z,2.80
2019-01-14T09:27:21.354Z,2.90
2019-01-14T09:29:47.841Z,2.90
2019-01-14T09:32:18.206Z,2.90
2019-01-14T09:34:45.171Z,2.90
2019-01-14T09:37:15.306Z,2.90
2019-01-14T09:39:42.013Z,2.90
2019-01-14T09:42:09.557Z,2.90
2019-01-14T09:44:43.447Z,2.90
2019-01-14T09:47:17.749Z,2.90
2019-01-14T09:49:45.609Z,2.90
2019-01-14T09:52:13.220Z,2.90
2019-01-14T09:54:39.649Z,3.00
2019-01-14T09:57:06.292Z,3.00
2019-01-14T09:59:32.673Z,3.00
2019-01-14T10:01:59.087Z,3.00
2019-01-14T10:04:25.571Z,3.00
2019-01-14T10:06:52.067Z,3.00
2019-01-14T10:09:18.450Z,3.00
2019-01-14T10:11:45.018Z,3.00
2019-01-14T10:14:11.538Z,3.00
2019-01-14T10:16:39.002Z,3.00
2019-01-14T10:19:05.528Z,3.10
2019-01-14T10:21:35.214Z,3.10
2019-01-14T10:24:01.700Z,3.10
2019-01-14T10:26:28.245Z,3.20
2019-01-14T10:28:57.057Z,3.20
2019-01-14T10:31:23.474Z,3.20
2019-01-14T10:33:49.895Z,3.20
2019-01-14T10:36:16.422Z,3.20
2019-01-14T10:38:50.555Z,3.10
2019-01-14T10:41:15.278Z,3.20
2019-01-14T10:43:42.110Z,3.30
2019-01-14T10:46:08.950Z,3.30
2019-01-14T10:48:35.613Z,3.30
2019-01-14T10:51:04.081Z,3.30
2019-01-14T10:53:31.574Z,3.30
2019-01-14T10:55:58.026Z,3.40
2019-01-14T10:58:37.140Z,3.40
2019-01-14T11:01:04.259Z,3.50
2019-01-14T11:03:31.204Z,3.50
2019-01-14T11:06:01.846Z,3.60
2019-01-14T11:08:38.908Z,3.60
2019-01-14T11:11:07.461Z,3.60
2019-01-14T11:13:46.053Z,3.60
2019-01-14T11:16:13.622Z,3.70
2019-01-14T11:18:46.043Z,3.70
2019-01-14T11:21:14.524Z,3.70
2019-01-14T11:23:49.142Z,3.70
2019-01-14T11:26:17.785Z,3.70
2019-01-14T11:28:44.247Z,3.70
2019-01-14T11:31:11.111Z,3.60
2019-01-14T11:33:40.001Z,3.60
2019-01-14T11:36:06.618Z,3.60
2019-01-14T11:38:44.451Z,3.50
2019-01-14T11:41:11.914Z,3.50
2019-01-14T11:43:38.561Z,3.50
2019-01-14T11:46:05.191Z,3.40
2019-01-14T11:48:37.149Z,3.40
2019-01-14T11:51:04.819Z,3.40
2019-01-14T11:53:31.365Z,3.30
2019-01-14T11:56:00.276Z,3.30
2019-01-14T11:58:27.908Z,3.20
2019-01-14T12:01:05.906Z,3.20
2019-01-14T12:03:33.345Z,3.20
2019-01-14T12:06:04.803Z,3.20
2019-01-14T12:08:31.423Z,3.20
2019-01-14T12:10:58.082Z,3.20
2019-01-14T12:13:31.085Z,3.10
2019-01-14T12:15:58.513Z,3.10
2019-01-14T12:18:24.941Z,3.10
2019-01-14T12:20:51.529Z,3.00
2019-01-14T12:23:18.018Z,2.80
2019-01-14T12:25:44.732Z,2.60
2019-01-14T12:28:11.342Z,2.30
2019-01-14T12:30:45.187Z,2.20
2019-01-14T12:33:13.937Z,2.00
2019-01-14T12:35:47.074Z,1.90
2019-01-14T12:38:13.698Z,1.90
2019-01-14T12:40:44.466Z,1.70
2019-01-14T12:43:10.962Z,1.60
2019-01-14T12:45:37.665Z,1.60
2019-01-14T12:48:04.253Z,1.60
2019-01-14T12:50:31.693Z,1.60
2019-01-14T12:52:58.613Z,1.60
2019-01-14T12:55:25.106Z,1.60
2019-01-14T12:57:51.503Z,1.60
2019-01-14T13:00:26.766Z,1.60
2019-01-14T13:02:58.299Z,1.60
2019-01-14T13:05:22.785Z,1.70
2019-01-14T13:07:50.319Z,1.70
2019-01-14T13:10:17.877Z,1.70
2019-01-14T13:12:44.437Z,1.70
2019-01-14T13:15:24.992Z,1.60
2019-01-14T13:17:51.830Z,1.50
2019-01-14T13:20:20.465Z,1.50
2019-01-14T13:22:53.577Z,1.40
2019-01-14T13:25:20.567Z,1.40
2019-01-14T13:27:49.251Z,1.40
2019-01-14T13:30:22.163Z,1.50
2019-01-14T13:32:48.636Z,1.50
2019-01-14T13:35:15.822Z,1.50
2019-01-14T13:37:42.675Z,1.50
2019-01-14T13:40:11.363Z,1.60
2019-01-14T13:42:38.199Z,1.60
2019-01-14T13:45:09.453Z,1.90
2019-01-14T13:47:49.612Z,2.30
2019-01-14T13:50:21.697Z,2.60
2019-01-14T13:52:48.442Z,3.00
2019-01-14T13:55:15.669Z,3.30
2019-01-14T13:57:42.109Z,3.40
2019-01-14T14:00:13.350Z,3.30
2019-01-14T14:02:40.045Z,3.30
2019-01-14T14:05:07.901Z,3.30
2019-01-14T14:07:37.990Z,3.50
2019-01-14T14:10:14.641Z,3.50
2019-01-14T14:12:41.340Z,3.50
2019-01-14T14:15:13.079Z,3.40
2019-01-14T14:17:41.023Z,3.10
2019-01-14T14:20:10.972Z,3.00
2019-01-14T14:22:44.981Z,2.80
2019-01-14T14:25:15.594Z,2.80
2019-01-14T14:27:50.621Z,2.90
2019-01-14T14:30:29.199Z,2.90
2019-01-14T14:32:55.725Z,2.90
2019-01-14T14:35:22.137Z,2.80
2019-01-14T14:37:48.635Z,2.70
2019-01-14T14:40:16.260Z,2.60
2019-01-14T14:42:42.761Z,2.50
2019-01-14T14:45:11.109Z,2.40
2019-01-14T14:47:37.523Z,2.30
2019-01-14T14:50:10.810Z,2.20
2019-01-14T14:55:35.004Z,2.10
2019-01-14T14:58:01.536Z,2.10
2019-01-14T15:00:28.087Z,2.10
2019-01-14T15:02:54.604Z,2.00
2019-01-14T15:05:22.092Z,2.00
2019-01-14T15:07:48.962Z,2.00
2019-01-14T15:10:17.474Z,2.00
2019-01-14T15:12:43.871Z,1.90
2019-01-14T15:15:12.682Z,1.90
2019-01-14T15:17:39.198Z,1.90
2019-01-14T15:20:11.074Z,1.80
2019-01-14T15:22:37.478Z,1.70
2019-01-14T15:25:03.973Z,1.60
2019-01-14T15:27:30.381Z,1.50
2019-01-14T15:29:57.034Z,1.50
2019-01-14T15:32:23.477Z,1.40
2019-01-14T15:34:50.234Z,1.40
2019-01-14T15:37:16.739Z,1.40
2019-01-14T15:39:43.610Z,1.30
2019-01-14T15:42:09.993Z,1.30
2019-01-14T15:44:36.422Z,1.30
2019-01-14T15:47:02.910Z,1.20
2019-01-14T15:49:29.489Z,1.20
2019-01-14T15:51:56.154Z,1.10
2019-01-14T15:54:22.557Z,1.10
2019-01-14T15:56:49.232Z,1.10
2019-01-14T15:59:15.881Z,1.00
2019-01-14T16:01:42.315Z,1.00
2019-01-14T16:04:08.873Z,1.00
2019-01-14T16:06:35.361Z,0.90
2019-01-14T16:09:03.769Z,0.90
2019-01-14T16:11:30.554Z,0.80
2019-01-14T16:13:57.221Z,0.90
2019-01-14T16:16:23.867Z,0.80
2019-01-14T16:18:51.281Z,0.80
2019-01-14T16:21:18.057Z,0.80
2019-01-14T16:23:44.492Z,0.80
2019-01-14T16:26:10.890Z,0.80
2019-01-14T16:28:37.290Z,0.80
2019-01-14T16:31:04.131Z,0.90
2019-01-14T16:33:30.759Z,0.90
2019-01-14T16:35:57.418Z,0.80
2019-01-14T16:38:24.073Z,0.90
2019-01-14T16:40:50.781Z,0.90
2019-01-14T16:43:17.276Z,0.90
2019-01-14T16:45:43.695Z,0.90
2019-01-14T16:48:10.770Z,0.90
2019-01-14T16:50:37.327Z,0.80
2019-01-14T16:53:03.799Z,0.80
2019-01-14T16:55:35.326Z,0.90
2019-01-14T16:58:01.722Z,0.90
2019-01-14T17:00:28.648Z,0.90
2019-01-14T17:02:55.192Z,0.90
2019-01-14T17:05:22.201Z,0.90
2019-01-14T17:07:49.114Z,0.90
2019-01-14T17:10:15.825Z,0.80
2019-01-14T17:12:42.531Z,0.90
2019-01-14T17:15:09.037Z,0.80
2019-01-14T17:17:35.448Z,0.80
2019-01-14T17:20:04.591Z,0.80
2019-01-14T17:22:32.194Z,0.80
2019-01-14T17:24:58.846Z,0.80
2019-01-14T17:27:25.823Z,0.70
2019-01-14T17:29:52.426Z,0.80
2019-01-14T17:32:19.187Z,0.80
2019-01-14T17:34:46.161Z,0.80
2019-01-14T17:37:18.904Z,0.80
2019-01-14T17:39:45.963Z,0.80
2019-01-14T17:42:12.773Z,0.80
2019-01-14T17:44:39.583Z,0.80
2019-01-14T17:47:06.268Z,0.80
2019-01-14T17:49:32.951Z,0.80
2019-01-14T17:51:59.365Z,0.80
2019-01-14T17:54:25.860Z,0.70
2019-01-14T17:56:52.301Z,0.80
2019-01-14T17:59:19.819Z,0.70
2019-01-14T18:01:46.313Z,0.70
2019-01-14T18:04:12.699Z,0.80
2019-01-14T18:06:39.101Z,0.70
2019-01-14T18:09:06.474Z,0.70
2019-01-14T18:11:32.954Z,0.80
2019-01-14T18:13:59.498Z,0.80
2019-01-14T18:16:26.105Z,0.80
2019-01-14T18:18:52.652Z,0.80
2019-01-14T18:21:19.356Z,0.80
2019-01-14T18:23:45.749Z,0.80
2019-01-14T18:26:12.162Z,0.80
2019-01-14T18:28:39.829Z,0.90
2019-01-14T18:31:06.313Z,0.90
2019-01-14T18:33:33.017Z,0.90
2019-01-14T18:35:59.687Z,0.90
2019-01-14T18:38:26.116Z,0.90
2019-01-14T18:40:52.661Z,0.90
2019-01-14T18:43:19.145Z,0.90
2019-01-14T18:45:45.909Z,0.80
2019-01-14T18:48:12.296Z,0.90
2019-01-14T18:50:38.996Z,0.90
2019-01-14T18:53:05.485Z,0.90
2019-01-14T18:55:32.039Z,0.90
2019-01-14T18:57:58.843Z,0.90
2019-01-14T19:00:25.724Z,0.80
2019-01-14T19:02:52.493Z,0.80
2019-01-14T19:05:20.146Z,0.80
2019-01-14T19:07:46.890Z,0.80
2019-01-14T19:10:13.940Z,0.80
2019-01-14T19:12:41.714Z,0.80
2019-01-14T19:15:10.920Z,0.80
2019-01-14T19:17:37.782Z,0.80
2019-01-14T19:20:11.973Z,0.70
2019-01-14T19:22:38.522Z,0.70
2019-01-14T19:25:06.330Z,0.70
2019-01-14T19:27:32.832Z,0.70
2019-01-14T19:29:59.331Z,0.70
2019-01-14T19:32:26.010Z,0.70
2019-01-14T19:34:52.788Z,0.70
2019-01-14T19:37:19.322Z,0.70
2019-01-14T19:39:45.814Z,0.70
2019-01-14T19:42:12.425Z,0.70
2019-01-14T19:44:38.862Z,0.60
2019-01-14T19:47:05.595Z,0.60
2019-01-14T19:49:33.690Z,0.60
2019-01-14T19:52:00.234Z,0.50
2019-01-14T19:54:26.825Z,0.50
2019-01-14T19:56:53.220Z,0.50
2019-01-14T19:59:19.624Z,0.50
2019-01-14T20:01:46.318Z,0.40
2019-01-14T20:04:12.746Z,0.40
2019-01-14T20:06:39.516Z,0.40
2019-01-14T20:09:06.631Z,0.30
2019-01-14T20:11:33.412Z,0.30
2019-01-14T20:13:59.907Z,0.30
2019-01-14T20:16:27.326Z,0.40
2019-01-14T20:18:53.748Z,0.40
2019-01-14T20:21:20.363Z,0.40
2019-01-14T20:23:52.274Z,0.40
2019-01-14T20:26:15.177Z,0.40
2019-01-14T20:28:41.774Z,0.30
2019-01-14T20:31:08.480Z,0.30
2019-01-14T20:33:35.162Z,0.30
2019-01-14T20:36:01.691Z,0.20
2019-01-14T20:38:28.181Z,0.30
2019-01-14T20:40:54.588Z,0.30
2019-01-14T20:43:22.265Z,0.30
2019-01-14T20:45:48.778Z,0.30
2019-01-14T20:48:15.586Z,0.30
2019-01-14T20:50:42.339Z,0.20
2019-01-14T20:53:13.770Z,0.30
2019-01-14T20:55:40.591Z,0.20
2019-01-14T20:58:07.000Z,0.20
2019-01-14T21:00:33.685Z,0.20
2019-01-14T21:03:00.116Z,0.20
2019-01-14T21:05:26.633Z,0.20
2019-01-14T21:07:53.237Z,0.20
2019-01-14T21:10:20.106Z,0.20
2019-01-14T21:12:46.531Z,0.20
2019-01-14T21:15:13.498Z,0.20
2019-01-14T21:17:41.122Z,0.10
2019-01-14T21:20:11.326Z,0.20
2019-01-14T21:22:37.769Z,0.20
2019-01-14T21:25:05.693Z,0.20
2019-01-14T21:27:33.523Z,0.20
2019-01-14T21:30:00.152Z,0.10
2019-01-14T21:32:26.750Z,0.20
2019-01-14T21:34:53.148Z,0.20
2019-01-14T21:37:19.953Z,0.10
2019-01-14T21:39:46.438Z,0.10
2019-01-14T21:42:13.232Z,0.10
2019-01-14T21:44:40.101Z,0.10
2019-01-14T21:47:06.512Z,0.10
2019-01-14T21:49:34.302Z,0.20
2019-01-14T21:52:01.606Z,0.10
2019-01-14T21:54:28.328Z,0.10
2019-01-14T21:56:55.102Z,0.10
2019-01-14T21:59:22.261Z,0.10
2019-01-14T22:01:48.649Z,0.10
2019-01-14T22:04:15.332Z,0.10
2019-01-14T22:06:41.824Z,0.10
2019-01-14T22:09:08.493Z,0.10
2019-01-14T22:11:38.729Z,0.10
2019-01-14T22:14:03.572Z,0.10
2019-01-14T22:16:30.070Z,0.10
2019-01-14T22:18:56.719Z,0.10
2019-01-14T22:21:23.501Z,0.10
2019-01-14T22:23:50.092Z,0.10
2019-01-14T22:26:16.609Z,0.10
2019-01-14T22:28:43.130Z,0.10
2019-01-14T22:31:09.636Z,0.10
2019-01-14T22:33:36.421Z,0.10
2019-01-14T22:36:03.305Z,0.10
2019-01-14T22:38:30.085Z,0.10
2019-01-14T22:40:56.746Z,0.10
2019-01-14T22:43:23.159Z,0.10
2019-01-14T22:45:49.637Z,0.00
2019-01-14T22:48:16.278Z,0.00
2019-01-14T22:50:42.701Z,0.10
2019-01-14T22:53:09.109Z,0.00
2019-01-14T22:55:35.654Z,0.00
2019-01-14T22:58:02.310Z,0.00
2019-01-14T23:00:58.830Z,0.00
2019-01-14T23:03:25.705Z,0.00
2019-01-14T23:05:52.119Z,0.00
2019-01-14T23:08:19.053Z,0.00
2019-01-14T23:10:45.683Z,0.00
2019-01-14T23:13:12.164Z,0.00
2019-01-14T23:15:38.829Z,0.00
2019-01-14T23:18:05.773Z,-0.10
2019-01-14T23:20:32.571Z,0.00
2019-01-14T23:22:59.066Z,-0.10
2019-01-14T23:25:25.476Z,-0.10
2019-01-14T23:27:52.985Z,-0.10
2019-01-14T23:30:19.398Z,-0.10
2019-01-14T23:32:46.817Z,-0.10
2019-01-14T23:35:13.407Z,-0.10
2019-01-14T23:37:39.933Z,-0.10
2019-01-14T23:40:08.444Z,-0.10
2019-01-14T23:42:34.830Z,-0.10
2019-01-14T23:45:01.355Z,-0.10
2019-01-14T23:47:28.130Z,-0.10
2019-01-14T23:49:54.518Z,-0.10
2019-01-14T23:52:21.178Z,-0.10
2019-01-14T23:54:47.978Z,-0.10
2019-01-14T23:57:14.496Z,-0.10
2019-01-14T23:59:40.930Z,-0.10
